sensor_id;sensor_type;location;lat;lon;timestamp;P1;durP1;ratioP1;P2;durP2;ratioP2
48481;SDS011;34284;48.278;16.378;2023-05-10T00:01:03;275.20;;;168.80;;
48481;SDS011;34284;48.278;16.378;2023-05-10T00:03:29;275.47;;;178.07;;
48481;SDS011;34284;48.278;16.378;2023-05-10T00:05:55;279.83;;;178.00;;
48481;SDS011;34284;48.278;16.378;2023-05-10T00:08:22;272.70;;;181.43;;
48481;SDS011;34284;48.278;16.378;2023-05-10T00:10:48;274.13;;;177.23;;
48481;SDS011;34284;48.278;16.378;2023-05-10T00:13:14;275.63;;;168.80;;
48481;SDS011;34284;48.278;16.378;2023-05-10T00:15:40;273.73;;;162.43;;
48481;SDS011;34284;48.278;16.378;2023-05-10T00:18:06;284.33;;;164.37;;
48481;SDS011;34284;48.278;16.378;2023-05-10T00:20:32;283.17;;;163.70;;
48481;SDS011;34284;48.278;16.378;2023-05-10T00:22:58;284.87;;;164.40;;
48481;SDS011;34284;48.278;16.378;2023-05-10T00:25:24;278.93;;;161.57;;
48481;SDS011;34284;48.278;16.378;2023-05-10T00:27:50;273.87;;;159.83;;
48481;SDS011;34284;48.278;16.378;2023-05-10T00:30:16;277.50;;;161.00;;
48481;SDS011;34284;48.278;16.378;2023-05-10T00:32:42;273.80;;;155.20;;
48481;SDS011;34284;48.278;16.378;2023-05-10T00:35:09;277.13;;;153.33;;
48481;SDS011;34284;48.278;16.378;2023-05-10T00:37:35;288.73;;;159.17;;
48481;SDS011;34284;48.278;16.378;2023-05-10T00:40:01;287.17;;;158.17;;
48481;SDS011;34284;48.278;16.378;2023-05-10T00:42:27;283.50;;;156.43;;
48481;SDS011;34284;48.278;16.378;2023-05-10T00:44:53;285.60;;;156.13;;
48481;SDS011;34284;48.278;16.378;2023-05-10T00:47:19;274.17;;;153.13;;
48481;SDS011;34284;48.278;16.378;2023-05-10T00:49:45;277.67;;;156.10;;
48481;SDS011;34284;48.278;16.378;2023-05-10T00:52:11;273.13;;;143.50;;
48481;SDS011;34284;48.278;16.378;2023-05-10T00:54:37;277.77;;;144.47;;
48481;SDS011;34284;48.278;16.378;2023-05-10T00:57:03;273.47;;;139.73;;
48481;SDS011;34284;48.278;16.378;2023-05-10T00:59:29;283.70;;;146.37;;
48481;SDS011;34284;48.278;16.378;2023-05-10T01:01:56;285.63;;;140.47;;
48481;SDS011;34284;48.278;16.378;2023-05-10T01:04:22;270.77;;;148.03;;
48481;SDS011;34284;48.278;16.378;2023-05-10T01:06:51;272.70;;;149.30;;
48481;SDS011;34284;48.278;16.378;2023-05-10T01:09:17;276.20;;;152.40;;
48481;SDS011;34284;48.278;16.378;2023-05-10T01:11:43;268.93;;;145.57;;
48481;SDS011;34284;48.278;16.378;2023-05-10T01:14:10;271.80;;;145.37;;
48481;SDS011;34284;48.278;16.378;2023-05-10T01:16:37;273.53;;;145.00;;
48481;SDS011;34284;48.278;16.378;2023-05-10T01:19:04;276.00;;;148.53;;
48481;SDS011;34284;48.278;16.378;2023-05-10T01:29:54;274.40;;;135.13;;
48481;SDS011;34284;48.278;16.378;2023-05-10T01:37:45;271.63;;;142.20;;
48481;SDS011;34284;48.278;16.378;2023-05-10T01:40:57;268.90;;;141.13;;
48481;SDS011;34284;48.278;16.378;2023-05-10T01:43:03;271.70;;;141.93;;
48481;SDS011;34284;48.278;16.378;2023-05-10T01:45:33;276.40;;;142.53;;
48481;SDS011;34284;48.278;16.378;2023-05-10T01:48:11;271.97;;;141.27;;
48481;SDS011;34284;48.278;16.378;2023-05-10T01:50:38;278.00;;;140.20;;
48481;SDS011;34284;48.278;16.378;2023-05-10T01:53:08;278.67;;;141.40;;
48481;SDS011;34284;48.278;16.378;2023-05-10T01:55:39;274.10;;;135.80;;
48481;SDS011;34284;48.278;16.378;2023-05-10T01:58:10;280.17;;;138.27;;
48481;SDS011;34284;48.278;16.378;2023-05-10T02:00:40;279.70;;;135.10;;
48481;SDS011;34284;48.278;16.378;2023-05-10T02:03:07;282.43;;;137.00;;
48481;SDS011;34284;48.278;16.378;2023-05-10T02:05:34;282.80;;;130.63;;
48481;SDS011;34284;48.278;16.378;2023-05-10T02:08:01;290.77;;;141.13;;
48481;SDS011;34284;48.278;16.378;2023-05-10T02:10:29;273.20;;;140.13;;
48481;SDS011;34284;48.278;16.378;2023-05-10T02:12:55;269.10;;;147.77;;
48481;SDS011;34284;48.278;16.378;2023-05-10T02:15:24;258.20;;;136.47;;
48481;SDS011;34284;48.278;16.378;2023-05-10T02:17:50;263.03;;;145.60;;
48481;SDS011;34284;48.278;16.378;2023-05-10T02:20:18;262.37;;;148.17;;
48481;SDS011;34284;48.278;16.378;2023-05-10T02:22:44;265.97;;;145.70;;
48481;SDS011;34284;48.278;16.378;2023-05-10T02:25:11;270.23;;;150.83;;
48481;SDS011;34284;48.278;16.378;2023-05-10T02:27:38;277.57;;;164.00;;
48481;SDS011;34284;48.278;16.378;2023-05-10T02:30:05;276.87;;;171.97;;
48481;SDS011;34284;48.278;16.378;2023-05-10T02:32:32;281.20;;;170.43;;
48481;SDS011;34284;48.278;16.378;2023-05-10T02:34:59;275.70;;;159.97;;
48481;SDS011;34284;48.278;16.378;2023-05-10T02:37:26;270.43;;;155.67;;
48481;SDS011;34284;48.278;16.378;2023-05-10T02:39:53;272.37;;;164.67;;
48481;SDS011;34284;48.278;16.378;2023-05-10T02:42:21;277.27;;;180.77;;
48481;SDS011;34284;48.278;16.378;2023-05-10T02:44:48;275.53;;;171.90;;
48481;SDS011;34284;48.278;16.378;2023-05-10T02:47:16;271.70;;;161.93;;
48481;SDS011;34284;48.278;16.378;2023-05-10T02:49:42;284.50;;;167.37;;
48481;SDS011;34284;48.278;16.378;2023-05-10T02:52:08;278.77;;;163.27;;
48481;SDS011;34284;48.278;16.378;2023-05-10T02:54:45;273.90;;;162.03;;
48481;SDS011;34284;48.278;16.378;2023-05-10T02:57:14;286.83;;;183.10;;
48481;SDS011;34284;48.278;16.378;2023-05-10T02:59:44;282.03;;;180.10;;
48481;SDS011;34284;48.278;16.378;2023-05-10T03:02:12;284.50;;;164.20;;
48481;SDS011;34284;48.278;16.378;2023-05-10T03:04:38;272.17;;;153.17;;
48481;SDS011;34284;48.278;16.378;2023-05-10T03:07:04;275.63;;;154.17;;
48481;SDS011;34284;48.278;16.378;2023-05-10T03:09:30;277.57;;;155.13;;
48481;SDS011;34284;48.278;16.378;2023-05-10T03:22:40;275.43;;;147.50;;
48481;SDS011;34284;48.278;16.378;2023-05-10T03:25:08;278.07;;;151.30;;
48481;SDS011;34284;48.278;16.378;2023-05-10T03:27:36;281.17;;;151.73;;
48481;SDS011;34284;48.278;16.378;2023-05-10T03:30:05;271.80;;;150.07;;
48481;SDS011;34284;48.278;16.378;2023-05-10T03:32:31;284.10;;;160.50;;
48481;SDS011;34284;48.278;16.378;2023-05-10T03:34:59;278.37;;;156.33;;
48481;SDS011;34284;48.278;16.378;2023-05-10T03:37:25;280.50;;;171.47;;
48481;SDS011;34284;48.278;16.378;2023-05-10T03:39:51;275.87;;;174.60;;
48481;SDS011;34284;48.278;16.378;2023-05-10T03:42:17;277.87;;;196.67;;
48481;SDS011;34284;48.278;16.378;2023-05-10T03:44:43;257.70;;;167.50;;
48481;SDS011;34284;48.278;16.378;2023-05-10T03:47:09;263.73;;;165.57;;
48481;SDS011;34284;48.278;16.378;2023-05-10T03:49:35;258.37;;;164.23;;
48481;SDS011;34284;48.278;16.378;2023-05-10T03:52:01;262.70;;;160.27;;
48481;SDS011;34284;48.278;16.378;2023-05-10T03:54:27;260.83;;;162.67;;
48481;SDS011;34284;48.278;16.378;2023-05-10T03:56:53;251.80;;;163.47;;
48481;SDS011;34284;48.278;16.378;2023-05-10T03:59:19;258.07;;;162.83;;
48481;SDS011;34284;48.278;16.378;2023-05-10T04:01:45;259.00;;;163.30;;
48481;SDS011;34284;48.278;16.378;2023-05-10T04:04:11;263.37;;;167.03;;
48481;SDS011;34284;48.278;16.378;2023-05-10T04:06:37;258.23;;;160.80;;
48481;SDS011;34284;48.278;16.378;2023-05-10T04:09:03;258.33;;;159.87;;
48481;SDS011;34284;48.278;16.378;2023-05-10T04:11:29;263.10;;;156.10;;
48481;SDS011;34284;48.278;16.378;2023-05-10T04:13:55;250.10;;;149.67;;
48481;SDS011;34284;48.278;16.378;2023-05-10T04:16:21;263.63;;;159.63;;
48481;SDS011;34284;48.278;16.378;2023-05-10T04:18:47;259.93;;;158.60;;
48481;SDS011;34284;48.278;16.378;2023-05-10T04:21:14;301.03;;;237.20;;
48481;SDS011;34284;48.278;16.378;2023-05-10T04:23:40;302.43;;;239.30;;
48481;SDS011;34284;48.278;16.378;2023-05-10T04:26:06;260.60;;;158.57;;
48481;SDS011;34284;48.278;16.378;2023-05-10T04:28:32;271.63;;;168.27;;
48481;SDS011;34284;48.278;16.378;2023-05-10T04:31:16;252.03;;;163.73;;
48481;SDS011;34284;48.278;16.378;2023-05-10T04:33:42;257.67;;;167.83;;
48481;SDS011;34284;48.278;16.378;2023-05-10T04:36:08;257.90;;;163.60;;
48481;SDS011;34284;48.278;16.378;2023-05-10T04:38:34;272.80;;;174.03;;
48481;SDS011;34284;48.278;16.378;2023-05-10T04:41:04;252.80;;;163.97;;
48481;SDS011;34284;48.278;16.378;2023-05-10T04:43:31;259.60;;;163.00;;
48481;SDS011;34284;48.278;16.378;2023-05-10T04:45:57;259.70;;;168.33;;
48481;SDS011;34284;48.278;16.378;2023-05-10T04:48:23;269.53;;;181.13;;
48481;SDS011;34284;48.278;16.378;2023-05-10T04:50:49;264.43;;;155.57;;
48481;SDS011;34284;48.278;16.378;2023-05-10T04:53:15;265.33;;;161.57;;
48481;SDS011;34284;48.278;16.378;2023-05-10T04:55:41;263.07;;;177.23;;
48481;SDS011;34284;48.278;16.378;2023-05-10T04:58:07;272.13;;;166.67;;
48481;SDS011;34284;48.278;16.378;2023-05-10T05:00:33;274.50;;;160.60;;
48481;SDS011;34284;48.278;16.378;2023-05-10T05:03:00;291.40;;;188.70;;
48481;SDS011;34284;48.278;16.378;2023-05-10T05:05:26;294.60;;;188.20;;
48481;SDS011;34284;48.278;16.378;2023-05-10T05:07:52;295.00;;;191.40;;
48481;SDS011;34284;48.278;16.378;2023-05-10T05:10:18;302.53;;;202.80;;
48481;SDS011;34284;48.278;16.378;2023-05-10T05:12:44;294.73;;;190.77;;
48481;SDS011;34284;48.278;16.378;2023-05-10T05:15:10;312.27;;;184.03;;
48481;SDS011;34284;48.278;16.378;2023-05-10T05:17:36;305.17;;;193.53;;
48481;SDS011;34284;48.278;16.378;2023-05-10T05:20:02;297.57;;;166.13;;
48481;SDS011;34284;48.278;16.378;2023-05-10T05:22:29;288.63;;;152.00;;
48481;SDS011;34284;48.278;16.378;2023-05-10T05:24:55;313.17;;;189.70;;
48481;SDS011;34284;48.278;16.378;2023-05-10T05:27:23;316.13;;;188.93;;
48481;SDS011;34284;48.278;16.378;2023-05-10T05:29:52;310.40;;;188.87;;
48481;SDS011;34284;48.278;16.378;2023-05-10T05:32:18;319.53;;;193.73;;
48481;SDS011;34284;48.278;16.378;2023-05-10T05:34:44;315.40;;;189.50;;
48481;SDS011;34284;48.278;16.378;2023-05-10T05:37:17;315.83;;;181.10;;
48481;SDS011;34284;48.278;16.378;2023-05-10T05:42:10;305.97;;;169.30;;
48481;SDS011;34284;48.278;16.378;2023-05-10T05:44:36;283.93;;;173.27;;
48481;SDS011;34284;48.278;16.378;2023-05-10T05:47:02;319.10;;;191.37;;
48481;SDS011;34284;48.278;16.378;2023-05-10T05:49:29;307.40;;;179.50;;
48481;SDS011;34284;48.278;16.378;2023-05-10T05:51:58;296.17;;;160.93;;
48481;SDS011;34284;48.278;16.378;2023-05-10T05:54:25;294.17;;;155.87;;
48481;SDS011;34284;48.278;16.378;2023-05-10T05:56:53;299.47;;;166.07;;
48481;SDS011;34284;48.278;16.378;2023-05-10T05:59:19;294.33;;;188.87;;
48481;SDS011;34284;48.278;16.378;2023-05-10T06:01:45;288.80;;;190.40;;
48481;SDS011;34284;48.278;16.378;2023-05-10T06:04:11;292.73;;;193.40;;
48481;SDS011;34284;48.278;16.378;2023-05-10T06:06:37;307.10;;;192.03;;
48481;SDS011;34284;48.278;16.378;2023-05-10T06:09:03;288.83;;;190.70;;
48481;SDS011;34284;48.278;16.378;2023-05-10T06:11:29;289.75;;;190.32;;
48481;SDS011;34284;48.278;16.378;2023-05-10T06:13:57;290.17;;;189.02;;
48481;SDS011;34284;48.278;16.378;2023-05-10T06:16:23;289.60;;;184.27;;
48481;SDS011;34284;48.278;16.378;2023-05-10T06:18:49;304.07;;;191.27;;
48481;SDS011;34284;48.278;16.378;2023-05-10T06:21:16;287.88;;;196.10;;
48481;SDS011;34284;48.278;16.378;2023-05-10T06:23:42;303.27;;;189.73;;
48481;SDS011;34284;48.278;16.378;2023-05-10T06:26:08;293.17;;;188.82;;
48481;SDS011;34284;48.278;16.378;2023-05-10T06:28:35;298.92;;;198.73;;
48481;SDS011;34284;48.278;16.378;2023-05-10T06:31:03;310.67;;;196.48;;
48481;SDS011;34284;48.278;16.378;2023-05-10T06:33:29;312.52;;;196.73;;
48481;SDS011;34284;48.278;16.378;2023-05-10T06:35:56;308.30;;;203.40;;
48481;SDS011;34284;48.278;16.378;2023-05-10T06:38:22;310.38;;;206.25;;
48481;SDS011;34284;48.278;16.378;2023-05-10T06:40:48;317.45;;;205.40;;
48481;SDS011;34284;48.278;16.378;2023-05-10T06:43:14;316.58;;;210.75;;
48481;SDS011;34284;48.278;16.378;2023-05-10T06:45:40;318.33;;;220.35;;
48481;SDS011;34284;48.278;16.378;2023-05-10T06:48:06;324.02;;;214.52;;
48481;SDS011;34284;48.278;16.378;2023-05-10T06:50:32;321.63;;;211.00;;
48481;SDS011;34284;48.278;16.378;2023-05-10T06:52:59;313.15;;;189.05;;
48481;SDS011;34284;48.278;16.378;2023-05-10T06:55:25;318.17;;;185.48;;
48481;SDS011;34284;48.278;16.378;2023-05-10T06:57:51;322.17;;;194.30;;
48481;SDS011;34284;48.278;16.378;2023-05-10T07:00:18;326.13;;;187.73;;
48481;SDS011;34284;48.278;16.378;2023-05-10T07:02:44;327.70;;;187.05;;
48481;SDS011;34284;48.278;16.378;2023-05-10T07:05:10;327.48;;;187.18;;
48481;SDS011;34284;48.278;16.378;2023-05-10T07:07:36;340.77;;;192.85;;
48481;SDS011;34284;48.278;16.378;2023-05-10T07:10:02;324.65;;;187.80;;
48481;SDS011;34284;48.278;16.378;2023-05-10T07:12:29;328.08;;;196.35;;
48481;SDS011;34284;48.278;16.378;2023-05-10T07:14:55;327.60;;;200.43;;
48481;SDS011;34284;48.278;16.378;2023-05-10T07:17:21;326.83;;;203.73;;
48481;SDS011;34284;48.278;16.378;2023-05-10T07:19:47;328.80;;;193.40;;
48481;SDS011;34284;48.278;16.378;2023-05-10T07:22:13;320.83;;;183.75;;
48481;SDS011;34284;48.278;16.378;2023-05-10T07:24:40;329.35;;;197.43;;
48481;SDS011;34284;48.278;16.378;2023-05-10T07:27:06;326.75;;;195.80;;
48481;SDS011;34284;48.278;16.378;2023-05-10T07:29:32;329.98;;;192.85;;
48481;SDS011;34284;48.278;16.378;2023-05-10T07:31:58;323.60;;;195.93;;
48481;SDS011;34284;48.278;16.378;2023-05-10T07:34:24;326.23;;;202.30;;
48481;SDS011;34284;48.278;16.378;2023-05-10T07:36:51;334.10;;;211.27;;
48481;SDS011;34284;48.278;16.378;2023-05-10T07:39:17;332.02;;;208.32;;
48481;SDS011;34284;48.278;16.378;2023-05-10T07:41:43;327.73;;;199.77;;
48481;SDS011;34284;48.278;16.378;2023-05-10T07:44:09;325.98;;;191.57;;
48481;SDS011;34284;48.278;16.378;2023-05-10T07:46:35;322.60;;;204.10;;
48481;SDS011;34284;48.278;16.378;2023-05-10T07:49:01;323.70;;;201.02;;
48481;SDS011;34284;48.278;16.378;2023-05-10T07:51:29;326.70;;;206.02;;
48481;SDS011;34284;48.278;16.378;2023-05-10T07:53:55;327.73;;;210.48;;
48481;SDS011;34284;48.278;16.378;2023-05-10T07:56:27;325.55;;;204.90;;
48481;SDS011;34284;48.278;16.378;2023-05-10T07:59:03;323.88;;;202.48;;
48481;SDS011;34284;48.278;16.378;2023-05-10T08:01:31;340.27;;;207.05;;
48481;SDS011;34284;48.278;16.378;2023-05-10T08:03:57;328.60;;;203.30;;
48481;SDS011;34284;48.278;16.378;2023-05-10T08:06:23;326.73;;;191.60;;
48481;SDS011;34284;48.278;16.378;2023-05-10T08:08:51;337.90;;;198.70;;
48481;SDS011;34284;48.278;16.378;2023-05-10T08:11:21;331.08;;;201.98;;
48481;SDS011;34284;48.278;16.378;2023-05-10T08:13:48;336.15;;;202.30;;
48481;SDS011;34284;48.278;16.378;2023-05-10T08:16:14;337.55;;;192.18;;
48481;SDS011;34284;48.278;16.378;2023-05-10T08:18:40;336.90;;;194.50;;
48481;SDS011;34284;48.278;16.378;2023-05-10T08:21:06;327.35;;;202.02;;
48481;SDS011;34284;48.278;16.378;2023-05-10T08:23:33;326.92;;;204.95;;
48481;SDS011;34284;48.278;16.378;2023-05-10T08:25:59;325.77;;;199.18;;
48481;SDS011;34284;48.278;16.378;2023-05-10T08:28:25;331.35;;;193.25;;
48481;SDS011;34284;48.278;16.378;2023-05-10T08:30:52;340.63;;;194.85;;
48481;SDS011;34284;48.278;16.378;2023-05-10T08:33:18;331.85;;;193.52;;
48481;SDS011;34284;48.278;16.378;2023-05-10T08:35:44;338.40;;;205.30;;
48481;SDS011;34284;48.278;16.378;2023-05-10T08:38:10;332.02;;;205.27;;
48481;SDS011;34284;48.278;16.378;2023-05-10T08:40:37;330.13;;;197.75;;
48481;SDS011;34284;48.278;16.378;2023-05-10T08:43:07;332.15;;;205.50;;
48481;SDS011;34284;48.278;16.378;2023-05-10T08:45:36;336.35;;;217.27;;
48481;SDS011;34284;48.278;16.378;2023-05-10T08:48:03;334.83;;;224.98;;
48481;SDS011;34284;48.278;16.378;2023-05-10T08:50:30;328.52;;;202.82;;
48481;SDS011;34284;48.278;16.378;2023-05-10T08:52:57;329.23;;;201.20;;
48481;SDS011;34284;48.278;16.378;2023-05-10T08:55:24;333.95;;;196.57;;
48481;SDS011;34284;48.278;16.378;2023-05-10T08:57:50;335.98;;;206.88;;
48481;SDS011;34284;48.278;16.378;2023-05-10T09:00:17;322.27;;;192.98;;
48481;SDS011;34284;48.278;16.378;2023-05-10T09:02:43;326.92;;;194.32;;
48481;SDS011;34284;48.278;16.378;2023-05-10T09:05:11;336.45;;;205.27;;
48481;SDS011;34284;48.278;16.378;2023-05-10T09:07:37;323.90;;;201.68;;
48481;SDS011;34284;48.278;16.378;2023-05-10T09:10:04;328.88;;;211.20;;
48481;SDS011;34284;48.278;16.378;2023-05-10T09:12:30;330.85;;;204.95;;
48481;SDS011;34284;48.278;16.378;2023-05-10T09:14:57;322.55;;;197.43;;
48481;SDS011;34284;48.278;16.378;2023-05-10T09:17:23;337.88;;;205.77;;
48481;SDS011;34284;48.278;16.378;2023-05-10T09:19:50;347.35;;;209.80;;
48481;SDS011;34284;48.278;16.378;2023-05-10T09:22:16;338.90;;;202.60;;
48481;SDS011;34284;48.278;16.378;2023-05-10T09:24:42;358.60;;;237.95;;
48481;SDS011;34284;48.278;16.378;2023-05-10T09:27:10;339.40;;;215.77;;
48481;SDS011;34284;48.278;16.378;2023-05-10T09:29:39;333.15;;;196.63;;
48481;SDS011;34284;48.278;16.378;2023-05-10T09:32:05;336.17;;;203.63;;
48481;SDS011;34284;48.278;16.378;2023-05-10T09:34:32;336.20;;;202.00;;
48481;SDS011;34284;48.278;16.378;2023-05-10T09:37:00;322.75;;;185.90;;
48481;SDS011;34284;48.278;16.378;2023-05-10T09:39:33;327.40;;;182.70;;
48481;SDS011;34284;48.278;16.378;2023-05-10T09:44:26;325.00;;;179.35;;
48481;SDS011;34284;48.278;16.378;2023-05-10T09:46:52;336.25;;;183.35;;
48481;SDS011;34284;48.278;16.378;2023-05-10T09:49:18;323.00;;;181.65;;
48481;SDS011;34284;48.278;16.378;2023-05-10T09:51:45;321.35;;;191.63;;
48481;SDS011;34284;48.278;16.378;2023-05-10T09:54:12;323.60;;;198.40;;
48481;SDS011;34284;48.278;16.378;2023-05-10T09:56:39;322.65;;;184.70;;
48481;SDS011;34284;48.278;16.378;2023-05-10T09:59:05;337.85;;;202.02;;
48481;SDS011;34284;48.278;16.378;2023-05-10T10:01:32;326.60;;;199.35;;
48481;SDS011;34284;48.278;16.378;2023-05-10T10:03:59;325.98;;;195.50;;
48481;SDS011;34284;48.278;16.378;2023-05-10T10:06:25;327.13;;;191.88;;
48481;SDS011;34284;48.278;16.378;2023-05-10T10:08:51;328.08;;;198.30;;
48481;SDS011;34284;48.278;16.378;2023-05-10T10:11:18;342.35;;;211.27;;
48481;SDS011;34284;48.278;16.378;2023-05-10T10:13:44;335.77;;;213.93;;
48481;SDS011;34284;48.278;16.378;2023-05-10T10:16:10;330.77;;;215.07;;
48481;SDS011;34284;48.278;16.378;2023-05-10T10:18:36;337.25;;;203.68;;
48481;SDS011;34284;48.278;16.378;2023-05-10T10:21:06;330.02;;;206.50;;
48481;SDS011;34284;48.278;16.378;2023-05-10T10:23:36;329.85;;;203.20;;
48481;SDS011;34284;48.278;16.378;2023-05-10T10:26:03;337.08;;;208.70;;
48481;SDS011;34284;48.278;16.378;2023-05-10T10:31:39;340.65;;;229.35;;
48481;SDS011;34284;48.278;16.378;2023-05-10T10:34:01;339.50;;;213.10;;
48481;SDS011;34284;48.278;16.378;2023-05-10T10:36:29;352.40;;;232.40;;
48481;SDS011;34284;48.278;16.378;2023-05-10T10:38:56;345.95;;;225.13;;
48481;SDS011;34284;48.278;16.378;2023-05-10T10:41:38;332.65;;;218.48;;
48481;SDS011;34284;48.278;16.378;2023-05-10T10:54:40;341.08;;;220.13;;
48481;SDS011;34284;48.278;16.378;2023-05-10T10:57:10;344.75;;;232.82;;
48481;SDS011;34284;48.278;16.378;2023-05-10T10:59:41;361.88;;;227.07;;
48481;SDS011;34284;48.278;16.378;2023-05-10T11:04:55;355.27;;;247.60;;
48481;SDS011;34284;48.278;16.378;2023-05-10T11:07:21;351.95;;;241.05;;
48481;SDS011;34284;48.278;16.378;2023-05-10T11:09:48;347.83;;;221.35;;
48481;SDS011;34284;48.278;16.378;2023-05-10T11:12:14;350.42;;;237.75;;
48481;SDS011;34284;48.278;16.378;2023-05-10T11:14:40;349.27;;;226.38;;
48481;SDS011;34284;48.278;16.378;2023-05-10T11:17:24;352.08;;;242.13;;
48481;SDS011;34284;48.278;16.378;2023-05-10T11:20:06;357.13;;;248.07;;
48481;SDS011;34284;48.278;16.378;2023-05-10T11:22:55;351.30;;;234.73;;
48481;SDS011;34284;48.278;16.378;2023-05-10T11:25:26;355.27;;;247.05;;
48481;SDS011;34284;48.278;16.378;2023-05-10T11:27:53;350.90;;;227.05;;
48481;SDS011;34284;48.278;16.378;2023-05-10T11:30:19;348.75;;;218.13;;
48481;SDS011;34284;48.278;16.378;2023-05-10T11:32:45;344.15;;;232.82;;
48481;SDS011;34284;48.278;16.378;2023-05-10T11:35:11;341.17;;;220.95;;
48481;SDS011;34284;48.278;16.378;2023-05-10T11:37:40;331.80;;;207.07;;
48481;SDS011;34284;48.278;16.378;2023-05-10T11:40:08;357.42;;;228.45;;
48481;SDS011;34284;48.278;16.378;2023-05-10T11:42:38;339.75;;;208.30;;
48481;SDS011;34284;48.278;16.378;2023-05-10T11:45:04;341.77;;;226.85;;
48481;SDS011;34284;48.278;16.378;2023-05-10T11:47:31;348.15;;;215.48;;
48481;SDS011;34284;48.278;16.378;2023-05-10T11:49:57;342.42;;;212.60;;
48481;SDS011;34284;48.278;16.378;2023-05-10T11:52:23;343.38;;;221.55;;
48481;SDS011;34284;48.278;16.378;2023-05-10T11:54:53;337.85;;;217.07;;
48481;SDS011;34284;48.278;16.378;2023-05-10T11:57:19;353.52;;;223.65;;
48481;SDS011;34284;48.278;16.378;2023-05-10T11:59:46;373.40;;;228.13;;
48481;SDS011;34284;48.278;16.378;2023-05-10T12:02:15;366.77;;;231.30;;
48481;SDS011;34284;48.278;16.378;2023-05-10T12:04:41;354.17;;;223.55;;
48481;SDS011;34284;48.278;16.378;2023-05-10T12:07:07;354.80;;;228.00;;
48481;SDS011;34284;48.278;16.378;2023-05-10T12:09:33;365.25;;;209.48;;
48481;SDS011;34284;48.278;16.378;2023-05-10T12:11:59;352.33;;;238.15;;
48481;SDS011;34284;48.278;16.378;2023-05-10T12:14:25;363.63;;;234.05;;
48481;SDS011;34284;48.278;16.378;2023-05-10T12:16:53;348.45;;;219.82;;
48481;SDS011;34284;48.278;16.378;2023-05-10T12:19:19;351.75;;;226.63;;
48481;SDS011;34284;48.278;16.378;2023-05-10T12:21:46;341.65;;;206.82;;
48481;SDS011;34284;48.278;16.378;2023-05-10T12:24:12;338.98;;;207.55;;
48481;SDS011;34284;48.278;16.378;2023-05-10T12:26:41;339.98;;;209.95;;
48481;SDS011;34284;48.278;16.378;2023-05-10T12:29:17;337.83;;;210.38;;
48481;SDS011;34284;48.278;16.378;2023-05-10T12:31:53;330.42;;;211.10;;
48481;SDS011;34284;48.278;16.378;2023-05-10T12:34:53;342.35;;;219.60;;
48481;SDS011;34284;48.278;16.378;2023-05-10T12:37:13;336.83;;;212.52;;
48481;SDS011;34284;48.278;16.378;2023-05-10T12:39:39;342.10;;;207.32;;
48481;SDS011;34284;48.278;16.378;2023-05-10T12:42:06;356.83;;;227.18;;
48481;SDS011;34284;48.278;16.378;2023-05-10T12:44:32;352.67;;;221.55;;
48481;SDS011;34284;48.278;16.378;2023-05-10T12:46:58;354.40;;;230.10;;
48481;SDS011;34284;48.278;16.378;2023-05-10T12:49:24;350.85;;;231.38;;
48481;SDS011;34284;48.278;16.378;2023-05-10T12:51:50;351.83;;;227.13;;
48481;SDS011;34284;48.278;16.378;2023-05-10T12:54:16;348.17;;;216.10;;
48481;SDS011;34284;48.278;16.378;2023-05-10T12:56:42;341.17;;;217.25;;
48481;SDS011;34284;48.278;16.378;2023-05-10T12:59:08;357.10;;;223.68;;
48481;SDS011;34284;48.278;16.378;2023-05-10T13:01:34;349.80;;;232.68;;
48481;SDS011;34284;48.278;16.378;2023-05-10T13:04:00;348.90;;;222.55;;
48481;SDS011;34284;48.278;16.378;2023-05-10T13:06:26;353.73;;;225.25;;
48481;SDS011;34284;48.278;16.378;2023-05-10T13:08:52;347.27;;;222.73;;
48481;SDS011;34284;48.278;16.378;2023-05-10T13:11:18;343.88;;;203.50;;
48481;SDS011;34284;48.278;16.378;2023-05-10T13:13:45;329.63;;;202.68;;
48481;SDS011;34284;48.278;16.378;2023-05-10T13:16:11;331.60;;;200.13;;
48481;SDS011;34284;48.278;16.378;2023-05-10T13:18:37;332.60;;;202.00;;
48481;SDS011;34284;48.278;16.378;2023-05-10T13:21:03;332.60;;;199.82;;
48481;SDS011;34284;48.278;16.378;2023-05-10T13:23:30;338.65;;;201.18;;
48481;SDS011;34284;48.278;16.378;2023-05-10T13:25:56;326.77;;;189.20;;
48481;SDS011;34284;48.278;16.378;2023-05-10T13:28:22;352.00;;;198.77;;
48481;SDS011;34284;48.278;16.378;2023-05-10T13:30:48;334.50;;;197.50;;
48481;SDS011;34284;48.278;16.378;2023-05-10T13:33:14;348.25;;;207.45;;
48481;SDS011;34284;48.278;16.378;2023-05-10T13:35:40;324.40;;;193.07;;
48481;SDS011;34284;48.278;16.378;2023-05-10T13:38:06;324.42;;;197.80;;
48481;SDS011;34284;48.278;16.378;2023-05-10T13:40:32;333.58;;;203.23;;
48481;SDS011;34284;48.278;16.378;2023-05-10T13:42:58;331.25;;;201.95;;
48481;SDS011;34284;48.278;16.378;2023-05-10T13:45:25;329.50;;;200.77;;
48481;SDS011;34284;48.278;16.378;2023-05-10T13:47:51;335.98;;;210.18;;
48481;SDS011;34284;48.278;16.378;2023-05-10T13:50:17;323.70;;;200.63;;
48481;SDS011;34284;48.278;16.378;2023-05-10T13:52:43;319.92;;;202.82;;
48481;SDS011;34284;48.278;16.378;2023-05-10T13:55:09;320.75;;;199.98;;
48481;SDS011;34284;48.278;16.378;2023-05-10T13:57:37;329.08;;;197.25;;
48481;SDS011;34284;48.278;16.378;2023-05-10T14:00:03;330.00;;;197.75;;
48481;SDS011;34284;48.278;16.378;2023-05-10T14:02:29;320.63;;;197.50;;
48481;SDS011;34284;48.278;16.378;2023-05-10T14:04:56;330.42;;;196.27;;
48481;SDS011;34284;48.278;16.378;2023-05-10T14:07:22;330.02;;;201.38;;
48481;SDS011;34284;48.278;16.378;2023-05-10T14:09:48;323.58;;;202.02;;
48481;SDS011;34284;48.278;16.378;2023-05-10T14:12:14;321.13;;;194.23;;
48481;SDS011;34284;48.278;16.378;2023-05-10T14:14:40;321.13;;;191.57;;
48481;SDS011;34284;48.278;16.378;2023-05-10T14:17:06;317.10;;;189.93;;
48481;SDS011;34284;48.278;16.378;2023-05-10T14:19:32;324.33;;;191.25;;
48481;SDS011;34284;48.278;16.378;2023-05-10T14:21:59;320.75;;;194.60;;
48481;SDS011;34284;48.278;16.378;2023-05-10T14:24:25;324.83;;;189.10;;
48481;SDS011;34284;48.278;16.378;2023-05-10T14:26:51;312.08;;;179.90;;
48481;SDS011;34284;48.278;16.378;2023-05-10T14:29:19;324.92;;;194.88;;